LiveATC.Net - Listen to live air traffic control over the Internet!


ICAO: SBGR  IATA: GRU   Airport: Sao Paulo-Guarulhos International Airport
City: Sao Paulo
Country: Brazil   Continent: South America
SBGR METAR Weather: SBGR 241100Z 08004KT 9999 FEW023 24/21 Q1019
SBGR Flight Activity (FlightAware)

SBGR Twr/App/ACC
Feed Status: DOWN
Last heard on: 2019-01-18 01:18:03 (6 days 10 hours 44 minutes ago)
SBGR Twr/App/ACC Audio Archives
FacilityFrequency
Brasilia Center126.150
Brasilia Center134.000
Curitiba Center126.500
Guarulhos Tower135.200
Marte Tower (SBMT)118.700
Sao Paulo Departure120.450
Sao Paulo Final Approach (Guarulhos)129.750
Sponsored by: aerocus.com

NOTICE

Unauthorized use prohibited. See LiveATC.net Terms of Service


Find LiveATC Audio Streams


Airport/ARTCC Code

Frequency Search
(e.g., 124.400, 128.75)
Site-wide search
 


Browse LiveATC Feeds
Top 50 LiveATC Feeds
LiveATC Feed Map
Bad Weather Areas

LiveATC FAQ
Offer LiveATC feed
Contact LiveATC.net
Press Inquiries

LiveATC on iPhone
LiveATC on Android

Windows Phone
Windows 8/10

LiveATC Mobile
(Mobile browser)

ATC Audio Archives
Interesting Recordings

LiveATC Forums


Home Page
About LiveATC.net
Make a Donation
Terms of Use
Privacy Policy

Canadian Air Freqs

AIRMETs/SIGMETs

FAA Airport Status
Nat'l Airspace Status
Arrival Demand Charts


Server Software By:
Icecast.org
Liquidsoap